createdAt,value
2022-10-14T00:00:28.018Z,81.30
2022-10-14T00:03:52.454Z,81.50
2022-10-14T00:07:16.609Z,81.00
2022-10-14T00:10:40.573Z,80.90
2022-10-14T00:14:06.631Z,80.70
2022-10-14T00:17:31.660Z,81.00
2022-10-14T00:20:55.945Z,80.90
2022-10-14T00:24:19.713Z,80.90
2022-10-14T00:27:43.341Z,81.10
2022-10-14T00:31:08.948Z,81.10
2022-10-14T00:34:34.015Z,80.90
2022-10-14T00:37:59.030Z,80.90
2022-10-14T00:41:24.856Z,81.00
2022-10-14T00:45:07.448Z,81.00
2022-10-14T00:48:32.410Z,81.20
2022-10-14T00:52:03.902Z,81.20
2022-10-14T00:55:30.868Z,81.10
2022-10-14T00:58:56.873Z,81.20
2022-10-14T01:02:20.434Z,81.10
2022-10-14T01:05:51.179Z,80.90
2022-10-14T01:09:26.582Z,81.00
2022-10-14T01:13:00.328Z,80.60
2022-10-14T01:16:32.456Z,80.80
2022-10-14T01:20:16.117Z,80.40
2022-10-14T01:24:15.414Z,80.30
2022-10-14T01:27:56.695Z,80.20
2022-10-14T01:31:24.320Z,79.80
2022-10-14T01:34:54.881Z,80.00
2022-10-14T01:38:24.642Z,80.20
2022-10-14T01:41:51.640Z,80.00
2022-10-14T01:45:19.996Z,80.10
2022-10-14T01:48:49.004Z,80.10
2022-10-14T01:52:19.931Z,80.20
2022-10-14T01:55:47.727Z,79.80
2022-10-14T01:59:15.342Z,79.90
2022-10-14T02:02:39.453Z,79.70
2022-10-14T02:06:08.540Z,80.00
2022-10-14T02:09:43.881Z,80.20
2022-10-14T02:13:20.517Z,79.90
2022-10-14T02:16:53.362Z,80.00
2022-10-14T02:20:26.198Z,80.10
2022-10-14T02:24:17.418Z,80.10
2022-10-14T02:27:45.654Z,80.00
2022-10-14T02:31:14.325Z,80.00
2022-10-14T02:34:43.033Z,79.80
2022-10-14T02:38:07.950Z,79.80
2022-10-14T02:41:36.410Z,79.70
2022-10-14T02:45:01.973Z,79.50
2022-10-14T02:48:25.605Z,79.50
2022-10-14T02:51:51.636Z,79.60
2022-10-14T02:55:15.422Z,79.40
2022-10-14T02:58:40.547Z,79.30
2022-10-14T03:02:04.288Z,79.40
2022-10-14T03:05:28.176Z,79.70
2022-10-14T03:08:52.738Z,79.70
2022-10-14T03:12:16.893Z,80.60
2022-10-14T03:15:42.982Z,79.70
2022-10-14T03:19:08.253Z,79.70
2022-10-14T03:22:43.525Z,79.90
2022-10-14T03:26:13.090Z,79.80
2022-10-14T03:29:40.499Z,80.00
2022-10-14T03:33:15.010Z,80.10
2022-10-14T03:36:49.474Z,79.90
2022-10-14T03:40:14.006Z,79.70
2022-10-14T03:43:38.149Z,79.60
2022-10-14T03:47:02.682Z,79.60
2022-10-14T03:50:30.502Z,79.90
2022-10-14T03:53:54.491Z,79.70
2022-10-14T03:57:23.675Z,79.50
2022-10-14T04:00:51.096Z,79.00
2022-10-14T04:04:25.641Z,79.20
2022-10-14T04:07:50.706Z,78.90
2022-10-14T04:11:15.021Z,79.00
2022-10-14T04:14:38.708Z,79.10
2022-10-14T04:18:03.115Z,79.20
2022-10-14T04:21:27.872Z,79.50
2022-10-14T04:24:52.975Z,79.60
2022-10-14T04:28:17.176Z,80.50
2022-10-14T04:31:50.221Z,79.70
2022-10-14T04:35:15.389Z,79.60
2022-10-14T04:38:42.623Z,79.40
2022-10-14T04:42:08.960Z,79.60
2022-10-14T04:45:33.508Z,79.70
2022-10-14T04:48:59.434Z,79.70
2022-10-14T04:52:28.280Z,79.60
2022-10-14T04:55:58.681Z,79.90
2022-10-14T04:59:24.058Z,79.80
2022-10-14T05:02:57.355Z,79.80
2022-10-14T05:06:31.484Z,79.90
2022-10-14T05:09:56.794Z,80.00
2022-10-14T05:13:33.398Z,80.10
2022-10-14T05:17:03.291Z,80.30
2022-10-14T05:20:29.080Z,80.20
2022-10-14T05:23:54.588Z,80.00
2022-10-14T05:27:19.259Z,80.40
2022-10-14T05:30:43.536Z,80.50
2022-10-14T05:34:10.051Z,80.30
2022-10-14T05:37:33.739Z,80.50
2022-10-14T05:40:58.849Z,80.60
2022-10-14T05:44:23.281Z,80.50
2022-10-14T05:47:47.652Z,80.50
2022-10-14T05:51:23.494Z,80.30
2022-10-14T05:54:53.158Z,80.30
2022-10-14T05:58:20.781Z,80.30
2022-10-14T06:01:46.093Z,80.30
2022-10-14T06:05:10.472Z,80.50
2022-10-14T06:08:35.682Z,80.40
2022-10-14T06:12:00.662Z,80.60
2022-10-14T06:15:25.179Z,80.40
2022-10-14T06:18:53.569Z,80.60
2022-10-14T06:22:19.505Z,80.70
2022-10-14T06:25:48.657Z,80.70
2022-10-14T06:29:15.266Z,80.90
2022-10-14T06:32:39.012Z,80.90
2022-10-14T06:36:03.948Z,80.90
2022-10-14T06:39:28.241Z,80.70
2022-10-14T06:42:54.341Z,81.00
2022-10-14T06:46:18.480Z,81.10
2022-10-14T06:49:42.301Z,81.50
2022-10-14T06:53:06.184Z,81.80
2022-10-14T06:56:29.823Z,82.50
2022-10-14T07:00:01.855Z,82.80
2022-10-14T07:03:29.305Z,83.10
2022-10-14T07:06:53.254Z,82.90
2022-10-14T07:10:26.365Z,82.00
2022-10-14T07:13:50.163Z,81.90
2022-10-14T07:17:15.587Z,82.00
2022-10-14T07:20:40.494Z,81.70
2022-10-14T07:24:04.306Z,81.50
2022-10-14T07:27:27.881Z,81.40
2022-10-14T07:30:58.726Z,80.80
2022-10-14T07:34:23.805Z,80.20
2022-10-14T07:37:47.725Z,79.50
2022-10-14T07:41:16.920Z,80.00
2022-10-14T07:44:40.648Z,79.70
2022-10-14T07:48:04.601Z,80.20
2022-10-14T07:51:30.118Z,80.30
2022-10-14T07:54:53.786Z,79.60
2022-10-14T07:58:17.466Z,79.90
2022-10-14T08:01:41.172Z,79.90
2022-10-14T08:05:32.805Z,78.40
2022-10-14T08:08:51.290Z,71.10
2022-10-14T08:12:14.957Z,69.80
2022-10-14T08:15:40.709Z,65.70
2022-10-14T08:19:12.692Z,63.50
2022-10-14T08:22:37.641Z,60.60
2022-10-14T08:26:02.793Z,58.50
2022-10-14T08:29:27.307Z,59.20
2022-10-14T08:32:51.089Z,58.80
2022-10-14T08:36:15.586Z,62.30
2022-10-14T08:39:39.131Z,64.70
2022-10-14T08:43:13.913Z,67.30
2022-10-14T08:46:40.388Z,68.90
2022-10-14T08:50:09.224Z,70.10
2022-10-14T08:53:39.508Z,70.10
2022-10-14T08:57:04.826Z,68.40
2022-10-14T09:00:32.148Z,65.30
2022-10-14T09:03:59.368Z,62.30
2022-10-14T09:07:23.166Z,61.20
2022-10-14T09:10:46.990Z,61.50
2022-10-14T09:14:16.770Z,59.40
2022-10-14T09:17:46.881Z,58.60
2022-10-14T09:21:34.182Z,58.80
2022-10-14T09:25:15.490Z,59.80
2022-10-14T09:28:41.236Z,60.60
2022-10-14T09:32:09.152Z,60.10
2022-10-14T09:35:36.339Z,62.00
2022-10-14T09:39:05.308Z,61.40
2022-10-14T09:42:49.009Z,62.20
2022-10-14T09:46:12.819Z,63.30
2022-10-14T09:49:41.266Z,64.70
2022-10-14T09:53:11.029Z,63.30
2022-10-14T09:56:40.693Z,64.10
2022-10-14T10:00:09.310Z,63.70
2022-10-14T10:03:35.457Z,61.90
2022-10-14T10:07:01.482Z,58.70
2022-10-14T10:10:26.474Z,56.80
2022-10-14T10:13:50.083Z,55.30
2022-10-14T10:17:19.262Z,56.30
2022-10-14T10:20:43.098Z,59.10
2022-10-14T10:24:24.896Z,62.10
2022-10-14T10:27:52.653Z,64.50
2022-10-14T10:31:53.328Z,65.30
2022-10-14T10:35:22.329Z,65.90
2022-10-14T10:38:59.320Z,66.40
2022-10-14T10:42:29.698Z,66.50
2022-10-14T10:46:10.811Z,65.20
2022-10-14T10:49:52.742Z,61.60
2022-10-14T10:53:30.687Z,59.80
2022-10-14T10:56:57.536Z,60.10
2022-10-14T11:04:03.790Z,60.80
2022-10-14T11:07:56.618Z,62.80
2022-10-14T11:11:44.202Z,62.00
2022-10-14T11:15:21.326Z,63.10
2022-10-14T11:18:50.260Z,62.80
2022-10-14T11:22:28.827Z,63.20
2022-10-14T11:25:59.806Z,61.50
2022-10-14T11:29:46.248Z,60.70
2022-10-14T11:33:39.012Z,60.50
2022-10-14T11:37:11.948Z,60.20
2022-10-14T11:40:42.203Z,60.90
2022-10-14T11:44:13.453Z,60.70
2022-10-14T11:47:40.954Z,59.50
2022-10-14T11:51:11.611Z,59.80
2022-10-14T11:54:43.927Z,59.10
2022-10-14T11:58:15.467Z,58.90
2022-10-14T12:01:44.409Z,58.50
2022-10-14T12:05:17.708Z,57.90
2022-10-14T12:08:50.154Z,56.50
2022-10-14T12:12:17.361Z,57.20
2022-10-14T12:15:45.729Z,58.00
2022-10-14T12:19:12.886Z,58.90
2022-10-14T12:22:37.005Z,59.00
2022-10-14T12:26:07.518Z,58.90
2022-10-14T12:29:36.824Z,58.30
2022-10-14T12:33:04.361Z,58.20
2022-10-14T12:36:34.060Z,59.20
2022-10-14T12:40:24.235Z,59.70
2022-10-14T12:44:00.804Z,58.70
2022-10-14T12:47:28.866Z,58.40
2022-10-14T12:51:06.691Z,58.40
2022-10-14T12:54:31.640Z,57.50
2022-10-14T12:57:57.401Z,58.20
2022-10-14T13:01:22.351Z,59.20
2022-10-14T13:04:49.971Z,59.80
2022-10-14T13:08:28.697Z,60.10
2022-10-14T13:12:34.153Z,59.90
2022-10-14T13:15:59.528Z,60.80
2022-10-14T13:19:46.540Z,61.30
2022-10-14T13:23:29.774Z,61.30
2022-10-14T13:27:10.743Z,61.00
2022-10-14T13:30:40.543Z,61.30
2022-10-14T13:34:19.111Z,60.90
2022-10-14T13:37:46.545Z,61.10
2022-10-14T13:41:18.432Z,61.40
2022-10-14T13:44:42.112Z,61.30
2022-10-14T13:48:06.658Z,61.80
2022-10-14T13:51:44.552Z,61.90
2022-10-14T13:55:16.850Z,62.20
2022-10-14T13:58:45.564Z,62.30
2022-10-14T14:02:15.575Z,61.90
2022-10-14T14:05:42.774Z,62.30
2022-10-14T14:09:07.848Z,62.20
2022-10-14T14:12:31.491Z,61.80
2022-10-14T14:15:57.149Z,62.00
2022-10-14T14:19:23.202Z,62.30
2022-10-14T14:22:47.609Z,62.20
2022-10-14T14:26:19.635Z,62.30
2022-10-14T14:29:45.365Z,62.40
2022-10-14T14:33:16.105Z,62.50
2022-10-14T14:37:05.705Z,63.40
2022-10-14T14:40:28.994Z,63.60
2022-10-14T14:44:13.706Z,64.30
2022-10-14T14:47:39.344Z,63.90
2022-10-14T14:51:04.478Z,63.70
2022-10-14T14:54:43.214Z,63.90
2022-10-14T14:58:24.369Z,64.50
2022-10-14T15:01:48.182Z,64.80
2022-10-14T15:05:12.602Z,65.10
2022-10-14T15:08:38.757Z,65.30
2022-10-14T15:12:03.886Z,67.10
2022-10-14T15:15:31.081Z,68.20
2022-10-14T15:19:34.105Z,69.40
2022-10-14T15:23:01.335Z,69.30
2022-10-14T15:26:35.526Z,70.40
2022-10-14T15:30:27.067Z,71.10
2022-10-14T15:33:50.686Z,73.00
2022-10-14T15:37:14.657Z,74.90
2022-10-14T15:40:38.413Z,76.10
2022-10-14T15:44:03.423Z,77.00
2022-10-14T15:47:28.772Z,77.70
2022-10-14T15:50:52.453Z,78.20
2022-10-14T15:54:17.688Z,78.60
2022-10-14T15:57:41.291Z,79.30
2022-10-14T16:01:07.367Z,79.80
2022-10-14T16:04:31.122Z,80.30
2022-10-14T16:07:54.795Z,80.70
2022-10-14T16:11:22.851Z,80.80
2022-10-14T16:14:46.670Z,81.00
2022-10-14T16:18:11.635Z,81.10
2022-10-14T16:21:35.153Z,81.40
2022-10-14T16:24:59.278Z,81.50
2022-10-14T16:28:22.845Z,81.60
2022-10-14T16:31:49.209Z,81.40
2022-10-14T16:35:14.410Z,81.70
2022-10-14T16:38:38.696Z,82.00
2022-10-14T16:42:02.632Z,82.10
2022-10-14T16:45:26.246Z,82.50
2022-10-14T16:48:49.800Z,82.50
2022-10-14T16:52:15.853Z,83.10
2022-10-14T16:55:40.258Z,83.10
2022-10-14T16:59:05.284Z,83.20
2022-10-14T17:02:31.782Z,83.60
2022-10-14T17:05:58.849Z,83.40
2022-10-14T17:12:49.895Z,83.80
2022-10-14T17:16:13.890Z,84.10
2022-10-14T17:19:39.565Z,84.10
2022-10-14T17:23:09.421Z,83.90
2022-10-14T17:26:37.856Z,83.80
2022-10-14T17:30:01.564Z,83.20
2022-10-14T17:33:26.035Z,83.30
2022-10-14T17:36:50.141Z,83.10
2022-10-14T17:40:14.010Z,83.10
2022-10-14T17:43:40.342Z,83.20
2022-10-14T17:47:04.179Z,83.30
2022-10-14T17:50:27.966Z,83.40
2022-10-14T17:53:53.761Z,83.60
2022-10-14T17:57:17.401Z,83.60
2022-10-14T18:00:42.540Z,83.20
2022-10-14T18:04:07.783Z,83.60
2022-10-14T18:07:31.554Z,83.40
2022-10-14T18:10:55.093Z,83.30
2022-10-14T18:14:18.769Z,83.10
2022-10-14T18:17:43.684Z,82.90
2022-10-14T18:21:07.694Z,82.80
2022-10-14T18:24:31.257Z,82.80
2022-10-14T18:27:54.829Z,82.50
2022-10-14T18:31:20.396Z,82.50
2022-10-14T18:34:45.528Z,82.00
2022-10-14T18:38:09.155Z,82.00
2022-10-14T18:41:33.585Z,82.00
2022-10-14T18:44:59.013Z,82.00
2022-10-14T18:48:23.626Z,81.60
2022-10-14T18:51:48.663Z,81.60
2022-10-14T18:55:12.369Z,81.60
2022-10-14T18:58:36.819Z,81.20
2022-10-14T19:02:01.462Z,81.60
2022-10-14T19:05:26.784Z,81.60
2022-10-14T19:08:55.122Z,81.40
2022-10-14T19:12:36.172Z,81.30
2022-10-14T19:16:03.866Z,81.40
2022-10-14T19:19:27.454Z,81.30
2022-10-14T19:22:56.506Z,81.30
2022-10-14T19:26:23.760Z,81.50
2022-10-14T19:29:47.361Z,82.20
2022-10-14T19:33:10.874Z,81.50
2022-10-14T19:36:37.167Z,81.70
2022-10-14T19:40:00.829Z,81.80
2022-10-14T19:43:25.953Z,81.80
2022-10-14T19:46:49.585Z,82.00
2022-10-14T19:50:13.568Z,81.70
2022-10-14T19:53:37.620Z,81.70
2022-10-14T19:57:01.508Z,81.60
2022-10-14T20:00:26.512Z,81.70
2022-10-14T20:03:50.581Z,81.80
2022-10-14T20:07:14.396Z,81.70
2022-10-14T20:10:38.582Z,81.80
2022-10-14T20:14:02.225Z,81.80
2022-10-14T20:17:28.590Z,81.70
2022-10-14T20:20:56.954Z,81.70
2022-10-14T20:24:20.855Z,81.90
2022-10-14T20:27:44.769Z,81.80
2022-10-14T20:31:09.699Z,81.90
2022-10-14T20:34:35.256Z,82.30
2022-10-14T20:37:58.958Z,82.30
2022-10-14T20:41:24.452Z,82.20
2022-10-14T20:44:48.085Z,82.20
2022-10-14T20:48:11.624Z,82.30
2022-10-14T20:51:36.830Z,82.40
2022-10-14T20:55:01.121Z,82.50
2022-10-14T20:58:24.905Z,82.50
2022-10-14T21:01:48.778Z,82.40
2022-10-14T21:05:12.799Z,82.40
2022-10-14T21:08:39.439Z,82.30
2022-10-14T21:12:02.975Z,82.20
2022-10-14T21:15:27.455Z,82.30
2022-10-14T21:18:56.805Z,82.40
2022-10-14T21:22:21.940Z,83.10
2022-10-14T21:25:55.089Z,82.30
2022-10-14T21:29:19.690Z,82.00
2022-10-14T21:32:43.243Z,82.20
2022-10-14T21:36:09.782Z,82.20
2022-10-14T21:39:33.654Z,82.30
2022-10-14T21:42:59.058Z,82.40
2022-10-14T21:46:22.686Z,82.40
2022-10-14T21:49:47.167Z,82.20
2022-10-14T21:53:12.587Z,82.30
2022-10-14T21:56:38.993Z,82.40
2022-10-14T22:00:05.377Z,82.40
2022-10-14T22:03:29.523Z,82.30
2022-10-14T22:06:54.038Z,82.30
2022-10-14T22:10:36.500Z,82.30
2022-10-14T22:14:04.372Z,82.40
2022-10-14T22:17:30.723Z,82.50
2022-10-14T22:21:01.872Z,82.40
2022-10-14T22:24:26.036Z,82.50
2022-10-14T22:27:56.672Z,82.50
2022-10-14T22:31:22.804Z,82.40
2022-10-14T22:34:52.031Z,82.60
2022-10-14T22:38:18.837Z,82.60
2022-10-14T22:41:43.597Z,82.70
2022-10-14T22:45:08.575Z,82.70
2022-10-14T22:48:33.365Z,82.50
2022-10-14T22:51:58.660Z,82.60
2022-10-14T22:55:22.264Z,82.70
2022-10-14T22:58:46.696Z,82.60
2022-10-14T23:02:10.332Z,82.50
2022-10-14T23:05:34.317Z,82.20
2022-10-14T23:09:00.884Z,82.10
2022-10-14T23:12:25.713Z,81.80
2022-10-14T23:15:56.830Z,81.70
2022-10-14T23:19:20.443Z,81.70
2022-10-14T23:22:44.417Z,81.70
2022-10-14T23:26:11.419Z,81.80
2022-10-14T23:29:35.045Z,81.60
2022-10-14T23:32:59.343Z,81.50
2022-10-14T23:36:23.874Z,81.50
2022-10-14T23:39:49.263Z,81.50
2022-10-14T23:43:14.228Z,82.10
2022-10-14T23:46:38.390Z,81.10
2022-10-14T23:50:04.495Z,81.00
2022-10-14T23:53:28.979Z,81.20
2022-10-14T23:56:53.817Z,81.30
